Time;durP1;ratioP1;P1;durP2;ratioP2;P2;SDS_P1;SDS_P2;PMS_P1;PMS_P2;Temp;Humidity;BMP_temperature;BMP_pressure;BME280_temperature;BME280_humidity;BME280_pressure;Samples;Min_cycle;Max_cycle;Signal;HPM_P1;HPM_P2
2022/03/18 00:02:36;;;;;;;27.60;13.80;;;;;;;4.50;35.81;101007.34;233319;1218;139750;-59
2022/03/18 00:07:40;;;;;;;25.80;12.60;;;;;;;4.47;35.91;101010.00;233466;1218;139658;-59
2022/03/18 00:12:45;;;;;;;26.50;13.40;;;;;;;4.40;36.03;101006.52;233301;1218;139404;-62
2022/03/18 00:17:50;;;;;;;168.50;86.90;;;;;;;4.36;36.12;101008.12;233267;1218;139596;-60
2022/03/18 00:22:53;;;;;;;43.10;19.10;;;;;;;4.36;36.19;101013.56;233158;1218;139530;-61
2022/03/18 00:27:56;;;;;;;29.40;14.50;;;;;;;4.28;36.07;101013.23;233222;1218;141056;-61
2022/03/18 00:32:59;;;;;;;25.70;13.40;;;;;;;4.22;36.21;101015.91;233437;1217;139674;-62
2022/03/18 00:38:11;;;;;;;27.00;13.30;;;;;;;4.16;36.20;101013.83;233285;1218;139333;-62
2022/03/18 00:43:14;;;;;;;24.20;12.20;;;;;;;4.13;36.54;101015.42;233209;1219;139732;-62
2022/03/18 00:53:38;;;;;;;22.30;11.80;;;;;;;4.06;36.76;101026.86;233226;1219;139058;-58
2022/03/18 00:58:43;;;;;;;28.00;12.30;;;;;;;4.01;36.65;101027.77;233233;1217;139960;-58
2022/03/18 01:03:46;;;;;;;28.20;14.10;;;;;;;3.96;36.88;101031.98;233371;1217;139939;-61
2022/03/18 01:08:49;;;;;;;28.00;13.70;;;;;;;3.89;36.87;101029.72;233389;1217;139640;-60
2022/03/18 01:13:51;;;;;;;23.30;11.70;;;;;;;3.81;36.93;101032.90;233369;1217;138976;-61
2022/03/18 01:18:54;;;;;;;24.20;12.50;;;;;;;3.74;37.04;101028.35;233229;1217;139824;-60
2022/03/18 01:23:57;;;;;;;25.50;13.00;;;;;;;3.71;37.15;101026.78;233384;1219;139703;-60
2022/03/18 01:29:00;;;;;;;23.50;11.60;;;;;;;3.66;37.23;101026.27;233483;1218;139931;-62
2022/03/18 01:34:04;;;;;;;19.60;11.30;;;;;;;3.61;37.41;101024.70;233273;1217;140367;-61
2022/03/18 01:39:07;;;;;;;17.60;10.30;;;;;;;3.58;37.55;101022.23;233324;1218;140339;-62
2022/03/18 01:44:11;;;;;;;18.10;10.20;;;;;;;3.55;37.58;101021.36;233269;1218;139842;-60
2022/03/18 01:49:14;;;;;;;18.20;10.20;;;;;;;3.52;37.62;101021.02;233316;1217;139980;-59
2022/03/18 01:59:39;;;;;;;17.90;9.70;;;;;;;3.41;37.62;101022.44;233216;1219;140135;-59
2022/03/18 02:04:43;;;;;;;21.40;11.10;;;;;;;3.38;37.90;101021.73;233247;1217;139570;-60
2022/03/18 02:09:46;;;;;;;18.40;10.20;;;;;;;3.32;37.91;101020.16;233282;1217;139063;-61
2022/03/18 02:14:49;;;;;;;18.20;11.20;;;;;;;3.28;38.12;101017.88;233524;1217;139959;-61
2022/03/18 02:19:52;;;;;;;19.30;10.80;;;;;;;3.21;38.29;101014.55;233256;1217;139080;-63
2022/03/18 02:24:56;;;;;;;20.10;11.00;;;;;;;3.14;38.32;101023.48;233284;1218;140860;-61
2022/03/18 02:29:59;;;;;;;21.80;10.90;;;;;;;3.09;38.47;101026.66;233249;1217;139354;-61
2022/03/18 02:35:03;;;;;;;18.20;10.20;;;;;;;2.99;38.56;101025.23;233309;1217;141238;-62
2022/03/18 02:40:06;;;;;;;20.30;10.90;;;;;;;2.94;38.73;101030.67;233233;1217;140819;-62
2022/03/18 02:45:10;;;;;;;19.80;10.30;;;;;;;2.92;38.75;101037.34;233393;1217;139203;-60
2022/03/18 02:50:15;;;;;;;19.50;11.40;;;;;;;2.85;38.96;101035.75;233175;1219;140111;-64
2022/03/18 02:55:19;;;;;;;25.00;11.60;;;;;;;2.80;39.00;101043.97;233220;1217;139051;-60
2022/03/18 03:00:25;;;;;;;20.60;11.70;;;;;;;2.75;39.13;101050.80;233214;1218;139839;-60
2022/03/18 03:10:49;;;;;;;24.40;12.60;;;;;;;2.65;39.43;101063.04;233272;1217;139109;-60
2022/03/18 03:15:53;;;;;;;22.70;11.80;;;;;;;2.61;39.58;101067.23;233471;1217;140174;-60
2022/03/18 03:20:56;;;;;;;20.30;11.50;;;;;;;2.58;39.58;101069.33;233278;1217;139876;-60
2022/03/18 03:25:59;;;;;;;18.60;11.60;;;;;;;2.56;39.70;101067.04;233219;1218;140372;-61
2022/03/18 03:31:03;;;;;;;19.70;10.70;;;;;;;2.53;39.73;101075.43;233060;1217;139873;-60
2022/03/18 03:36:06;;;;;;;17.00;10.50;;;;;;;2.47;39.92;101079.97;233239;1217;138798;-60
2022/03/18 03:41:10;;;;;;;18.20;10.70;;;;;;;2.42;39.89;101085.55;233259;1217;139819;-61
2022/03/18 03:46:13;;;;;;;19.50;10.00;;;;;;;2.36;39.94;101085.52;233147;1217;140726;-60
2022/03/18 03:51:16;;;;;;;18.40;10.50;;;;;;;2.31;40.15;101088.48;233335;1220;140292;-61
2022/03/18 03:56:19;;;;;;;21.00;11.10;;;;;;;2.27;40.18;101086.00;233464;1217;139721;-60
2022/03/18 04:01:21;;;;;;;16.60;10.10;;;;;;;2.25;40.44;101082.85;233194;1219;141105;-61
2022/03/18 04:06:25;;;;;;;19.80;11.10;;;;;;;2.23;40.47;101093.16;233250;1218;142208;-61
2022/03/18 04:11:28;;;;;;;16.60;10.20;;;;;;;2.22;40.54;101092.81;233231;1218;140127;-61
2022/03/18 04:16:31;;;;;;;16.80;10.40;;;;;;;2.20;40.72;101100.69;233300;1217;139507;-60
2022/03/18 04:21:35;;;;;;;15.50;9.20;;;;;;;2.14;40.61;101106.09;233299;1217;139620;-61
2022/03/18 04:26:37;;;;;;;18.40;10.30;;;;;;;2.08;40.76;101104.99;233273;1217;140645;-60
2022/03/18 04:31:41;;;;;;;19.50;10.10;;;;;;;2.06;40.87;101108.50;233178;1218;140825;-60
2022/03/18 04:36:44;;;;;;;16.00;9.40;;;;;;;2.03;41.09;101112.85;233163;1217;139733;-60
2022/03/18 04:41:47;;;;;;;18.00;9.50;;;;;;;2.00;41.10;101113.69;233129;1217;139466;-60
2022/03/18 04:46:50;;;;;;;21.80;10.60;;;;;;;1.96;41.06;101115.60;233322;1217;139883;-60
2022/03/18 04:51:53;;;;;;;20.70;10.90;;;;;;;1.94;41.18;101116.28;233231;1217;139178;-61
2022/03/18 05:02:20;;;;;;;18.70;11.40;;;;;;;1.82;41.29;101128.63;233231;1217;139987;-59
2022/03/18 05:07:24;;;;;;;;;;;;;;;1.77;41.53;101138.05;233213;1217;139708;-60
2022/03/18 05:12:31;;;;;;;17.90;10.30;;;;;;;1.76;41.56;101141.89;233262;1217;124989;-59
2022/03/18 05:17:35;;;;;;;17.80;10.10;;;;;;;1.75;41.63;101146.08;233159;1217;139009;-60
2022/03/18 05:22:38;;;;;;;17.70;9.90;;;;;;;1.76;41.84;101143.64;233159;1217;141655;-61
2022/03/18 05:27:44;;;;;;;18.70;10.40;;;;;;;1.79;41.95;101144.00;233201;1217;139381;-60
2022/03/18 05:32:47;;;;;;;21.60;10.40;;;;;;;1.84;41.93;101145.63;233342;1217;141106;-60
2022/03/18 05:37:50;;;;;;;15.80;9.60;;;;;;;1.86;42.03;101148.97;233161;1217;140756;-60
2022/03/18 05:42:53;;;;;;;16.80;10.10;;;;;;;1.90;42.06;101146.02;233195;1217;139834;-60
2022/03/18 05:47:56;;;;;;;18.60;9.80;;;;;;;1.95;42.25;101148.50;233139;1218;140192;-63
2022/03/18 05:52:59;;;;;;;18.60;9.70;;;;;;;2.04;42.21;101156.61;233208;1217;139961;-63
2022/03/18 05:58:02;;;;;;;16.70;8.80;;;;;;;2.15;42.32;101157.74;233220;1217;140305;-61
2022/03/18 06:03:07;;;;;;;19.20;9.40;;;;;;;2.23;42.21;101161.29;233305;1217;141822;-63
2022/03/18 06:13:31;;;;;;;15.80;9.30;;;;;;;2.36;42.04;101175.20;233254;1217;139778;-61
2022/03/18 06:18:34;;;;;;;16.80;8.50;;;;;;;2.42;42.14;101178.39;233132;1217;139806;-61
2022/03/18 06:23:37;;;;;;;14.80;8.50;;;;;;;2.49;41.93;101180.89;232987;1217;139203;-62
2022/03/18 06:28:41;;;;;;;16.90;8.90;;;;;;;2.54;41.79;101188.80;233230;1217;139712;-61
2022/03/18 06:33:44;;;;;;;15.10;8.90;;;;;;;2.63;41.92;101192.35;233087;1217;140019;-63
2022/03/18 06:38:47;;;;;;;14.60;8.40;;;;;;;2.71;41.94;101190.12;233318;1217;140103;-63
2022/03/18 06:43:51;;;;;;;150.80;113.80;;;;;;;2.84;42.07;101196.83;233249;1217;140363;-63
2022/03/18 06:48:54;;;;;;;25.10;15.40;;;;;;;3.03;42.21;101203.75;233170;1217;140610;-64
2022/03/18 06:53:57;;;;;;;20.20;10.10;;;;;;;3.15;41.79;101210.27;233143;1219;139570;-64
2022/03/18 06:59:00;;;;;;;148.30;93.20;;;;;;;3.25;41.90;101211.36;233182;1217;140152;-62
2022/03/18 07:04:03;;;;;;;23.60;14.40;;;;;;;3.39;42.02;101218.59;233357;1217;139955;-64
2022/03/18 07:09:06;;;;;;;20.50;10.40;;;;;;;3.53;41.67;101217.21;233311;1217;140237;-64
2022/03/18 07:14:10;;;;;;;14.10;8.60;;;;;;;3.63;41.47;101217.23;233079;1218;139338;-65
2022/03/18 07:19:13;;;;;;;135.60;83.20;;;;;;;3.76;41.49;101221.80;233228;1217;139809;-64
2022/03/18 07:24:16;;;;;;;22.00;12.70;;;;;;;3.94;41.47;101225.16;233196;1217;140069;-65
2022/03/18 07:29:19;;;;;;;21.30;11.30;;;;;;;4.04;40.97;101227.08;233169;1218;139911;-63
2022/03/18 07:34:22;;;;;;;15.20;8.70;;;;;;;4.14;41.01;101229.73;233158;1217;140034;-63
2022/03/18 07:39:25;;;;;;;14.10;8.20;;;;;;;4.24;40.54;101229.71;233228;1217;140340;-64
2022/03/18 07:44:28;;;;;;;12.40;7.90;;;;;;;4.33;40.48;101234.45;233211;1219;139442;-63
2022/03/18 07:49:32;;;;;;;14.70;8.30;;;;;;;4.43;40.60;101228.29;233194;1218;138931;-61
2022/03/18 07:54:35;;;;;;;13.60;8.40;;;;;;;4.55;40.47;101233.02;233173;1218;139614;-63
2022/03/18 07:59:37;;;;;;;12.30;7.60;;;;;;;4.64;39.91;101236.34;233260;1217;139786;-63
2022/03/18 08:04:40;;;;;;;16.00;8.10;;;;;;;4.72;39.91;101241.59;233328;1217;139843;-63
2022/03/18 08:09:44;;;;;;;18.90;10.40;;;;;;;4.81;40.18;101241.73;233225;1217;139924;-63
2022/03/18 08:14:47;;;;;;;25.40;13.40;;;;;;;4.95;40.26;101244.15;233313;1217;140511;-63
2022/03/18 08:19:53;;;;;;;20.00;9.40;;;;;;;5.06;39.76;101249.58;233153;1217;139989;-63
2022/03/18 08:24:56;;;;;;;;;;;;;;;5.11;39.88;101255.53;233216;1218;139985;-64
2022/03/18 08:30:00;;;;;;;16.20;9.60;;;;;;;5.16;39.58;101257.80;233279;1218;127753;-63
2022/03/18 08:35:05;;;;;;;16.30;9.40;;;;;;;5.23;39.51;101262.87;233262;1217;139681;-63
2022/03/18 08:40:10;;;;;;;15.70;9.10;;;;;;;5.31;39.44;101270.05;233213;1219;139105;-62
2022/03/18 08:45:13;;;;;;;15.10;9.20;;;;;;;5.41;39.48;101276.34;233306;1217;140011;-60
2022/03/18 08:50:17;;;;;;;15.50;9.50;;;;;;;5.50;39.27;101287.91;233254;1217;139364;-61
2022/03/18 08:55:21;;;;;;;27.80;14.20;;;;;;;5.61;39.53;101290.14;233196;1217;140074;-60
2022/03/18 09:00:24;;;;;;;21.30;10.80;;;;;;;5.77;39.32;101289.52;233129;1219;139901;-59
2022/03/18 09:05:28;;;;;;;16.80;10.20;;;;;;;5.86;39.56;101298.45;233205;1217;140066;-60
2022/03/18 09:10:31;;;;;;;17.10;9.80;;;;;;;5.92;39.19;101297.73;233146;1218;139993;-62
2022/03/18 09:15:35;;;;;;;20.70;10.10;;;;;;;5.94;38.91;101296.31;233286;1217;139692;-61
2022/03/18 09:20:38;;;;;;;17.40;9.70;;;;;;;6.03;38.95;101301.36;233237;1217;140455;-60
2022/03/18 09:25:41;;;;;;;18.20;10.20;;;;;;;6.18;39.09;101303.02;233123;1217;139636;-59
2022/03/18 09:30:44;;;;;;;19.40;9.00;;;;;;;6.33;39.00;101307.48;233151;1217;140397;-58
2022/03/18 09:35:47;;;;;;;21.80;12.50;;;;;;;6.51;39.42;101301.52;233103;1217;139748;-59
2022/03/18 09:40:51;;;;;;;22.70;10.50;;;;;;;6.75;39.08;101295.64;233310;1217;140724;-60
2022/03/18 09:46:09;;;;;;;21.10;10.10;;;;;;;6.92;38.83;101301.30;233290;1217;139039;-59
2022/03/18 09:51:32;;;;;;;17.40;8.90;;;;;;;7.07;38.63;101301.85;233218;1217;140123;-60
2022/03/18 09:57:03;;;;;;;19.30;9.70;;;;;;;7.20;38.25;101303.27;233433;1217;139554;-59
2022/03/18 10:02:29;;;;;;;18.00;8.90;;;;;;;7.34;38.01;101307.52;233300;1217;140472;-60
2022/03/18 10:07:32;;;;;;;17.20;8.70;;;;;;;7.51;38.12;101309.78;233104;1219;140046;-61
2022/03/18 10:12:36;;;;;;;15.00;8.10;;;;;;;7.68;37.99;101314.15;233239;1217;138830;-61
2022/03/18 10:17:42;;;;;;;15.50;7.90;;;;;;;7.86;37.61;101310.19;233235;1217;140244;-59
2022/03/18 10:22:46;;;;;;;11.90;7.30;;;;;;;8.04;37.40;101311.86;233205;1217;139424;-60
2022/03/18 10:27:49;;;;;;;16.20;7.90;;;;;;;8.23;37.24;101311.92;233245;1217;139439;-61
2022/03/18 10:32:53;;;;;;;17.60;8.10;;;;;;;8.49;36.97;101315.97;233340;1217;139621;-62
2022/03/18 10:37:56;;;;;;;16.00;7.80;;;;;;;8.77;36.79;101315.12;233240;1217;138718;-61
2022/03/18 10:43:01;;;;;;;15.90;7.70;;;;;;;9.08;36.42;101316.49;233179;1217;140167;-60
2022/03/18 10:48:15;;;;;;;15.10;8.00;;;;;;;9.37;36.01;101312.55;233292;1217;139724;-61
2022/03/18 10:53:19;;;;;;;13.10;7.50;;;;;;;9.67;35.83;101308.20;233203;1217;140184;-60
2022/03/18 10:58:22;;;;;;;15.90;8.90;;;;;;;9.91;35.58;101309.77;233247;1217;140435;-60
2022/03/18 11:03:26;;;;;;;12.90;7.00;;;;;;;10.08;35.14;101306.21;233194;1217;139602;-61
2022/03/18 11:08:37;;;;;;;12.50;7.20;;;;;;;10.15;34.73;101312.94;233272;1217;140396;-60
2022/03/18 11:14:20;;;;;;;14.10;7.70;;;;;;;10.20;34.32;101306.98;233234;1217;139670;-60
2022/03/18 11:19:24;;;;;;;12.50;7.60;;;;;;;10.26;34.11;101302.95;233357;1219;140780;-61
2022/03/18 11:24:27;;;;;;;10.70;7.30;;;;;;;10.31;34.10;101301.77;233209;1217;140676;-60
2022/03/18 11:29:31;;;;;;;12.30;8.00;;;;;;;10.39;33.92;101303.35;233176;1217;139793;-59
2022/03/18 11:34:50;;;;;;;118.60;79.00;;;;;;;10.49;33.54;101294.77;233178;1217;139512;-60
2022/03/18 11:40:19;;;;;;;12.30;8.70;;;;;;;10.66;33.53;101295.40;233057;1217;140361;-61
2022/03/18 11:45:33;;;;;;;12.90;7.50;;;;;;;10.84;33.58;101296.34;233262;1217;140741;-61
2022/03/18 11:50:43;;;;;;;12.60;7.60;;;;;;;11.04;33.23;101294.20;233145;1217;140530;-61
2022/03/18 11:55:46;;;;;;;12.60;7.80;;;;;;;11.21;32.82;101287.31;233140;1217;139321;-61
2022/03/18 12:01:05;;;;;;;12.10;7.80;;;;;;;11.46;33.15;101289.96;233214;1217;140823;-61
2022/03/18 12:06:09;;;;;;;10.90;7.10;;;;;;;11.77;32.60;101280.69;233159;1217;139939;-60
2022/03/18 12:11:38;;;;;;;13.40;7.90;;;;;;;12.13;32.93;101275.13;233149;1218;139506;-61
2022/03/18 12:16:43;;;;;;;12.60;7.60;;;;;;;12.52;32.15;101271.52;233143;1219;140225;-61
2022/03/18 12:22:07;;;;;;;17.00;7.90;;;;;;;12.81;31.66;101272.80;232993;1219;141561;-59
2022/03/18 12:27:10;;;;;;;20.80;7.80;;;;;;;13.14;31.73;101271.62;233365;1217;139487;-60
2022/03/18 12:32:13;;;;;;;14.60;7.40;;;;;;;13.37;31.24;101264.21;233034;1219;139949;-60
2022/03/18 12:37:24;;;;;;;82.10;45.90;;;;;;;13.57;31.29;101260.08;233137;1219;141958;-60
2022/03/18 12:42:28;;;;;;;12.80;8.30;;;;;;;13.74;30.88;101261.31;233156;1217;142096;-60
2022/03/18 12:47:31;;;;;;;11.60;6.80;;;;;;;13.84;30.67;101262.41;233237;1218;139635;-63
2022/03/18 12:52:42;;;;;;;10.40;7.30;;;;;;;13.97;30.52;101254.73;233153;1217;139392;-61
2022/03/18 12:57:46;;;;;;;13.90;7.10;;;;;;;14.12;30.24;101253.23;233195;1219;140488;-61
2022/03/18 13:02:52;;;;;;;13.70;7.20;;;;;;;14.29;30.02;101255.38;233255;1217;139370;-61
2022/03/18 13:08:04;;;;;;;;;;;;;;;14.41;29.83;101254.32;233172;1217;139917;-61
2022/03/18 13:13:13;;;;;;;12.40;6.90;;;;;;;14.63;29.52;101261.79;233241;1217;125548;-61
2022/03/18 13:18:17;;;;;;;15.40;7.20;;;;;;;14.83;29.24;101250.40;233200;1217;139910;-60
2022/03/18 13:23:20;;;;;;;10.20;6.90;;;;;;;15.10;29.26;101245.62;233174;1217;141116;-61
2022/03/18 13:28:27;;;;;;;10.20;6.30;;;;;;;15.30;28.54;101248.81;233166;1217;139671;-59
2022/03/18 13:33:49;;;;;;;16.10;7.00;;;;;;;15.44;28.40;101246.54;233242;1217;139716;-61
2022/03/18 13:38:58;;;;;;;11.80;6.60;;;;;;;15.66;27.88;101246.60;233607;1218;139196;-62
2022/03/18 13:44:01;;;;;;;8.60;6.10;;;;;;;15.90;27.86;101255.31;233655;1217;139735;-62
2022/03/18 13:49:10;;;;;;;11.20;6.60;;;;;;;15.95;27.45;101245.77;233736;1217;140862;-61
2022/03/18 13:54:21;;;;;;;16.10;9.20;;;;;;;16.34;30.28;101237.70;233721;1217;138966;-59
2022/03/18 13:59:26;;;;;;;11.40;7.80;;;;;;;16.78;28.65;101240.67;233718;1217;139979;-59
2022/03/18 14:04:40;;;;;;;;;;;;;;;16.10;27.22;101244.83;233770;1218;140036;-58
2022/03/18 14:09:57;;;;;;;12.10;7.20;;;;;;;15.34;26.76;101250.05;233876;1217;219335;-58
2022/03/18 14:15:08;;;;;;;11.80;6.50;;;;;;;14.69;26.65;101243.29;233546;1218;140309;-62
2022/03/18 14:20:12;;;;;;;11.20;7.10;;;;;;;14.18;26.63;101243.32;233724;1218;140066;-58
2022/03/18 14:25:17;;;;;;;11.60;7.20;;;;;;;13.77;26.87;101240.73;233590;1218;140640;-58
2022/03/18 14:30:47;;;;;;;12.10;6.70;;;;;;;13.35;26.84;101248.93;233571;1218;139839;-58
2022/03/18 14:35:53;;;;;;;11.00;6.70;;;;;;;12.91;27.06;101246.45;233692;1219;140123;-58
2022/03/18 14:41:00;;;;;;;11.20;6.20;;;;;;;12.60;26.86;101248.45;233719;1218;140398;-58
2022/03/18 14:46:04;;;;;;;145.00;85.80;;;;;;;12.36;27.31;101246.95;233709;1219;140069;-59
2022/03/18 14:51:07;;;;;;;74.50;44.70;;;;;;;12.96;29.64;101245.88;233592;1219;140651;-59
2022/03/18 14:56:19;;;;;;;21.40;13.70;;;;;;;14.12;29.64;101231.80;233697;1217;139612;-58
2022/03/18 15:01:23;;;;;;;22.50;13.10;;;;;;;14.99;28.85;101232.52;233647;1217;139753;-58
2022/03/18 15:06:27;;;;;;;10.70;7.30;;;;;;;15.42;28.14;101221.40;233674;1218;140403;-59
2022/03/18 15:11:30;;;;;;;15.80;7.00;;;;;;;15.66;27.68;101214.73;233665;1217;139775;-57
2022/03/18 15:16:33;;;;;;;12.90;7.10;;;;;;;15.78;27.30;101218.63;233659;1218;140107;-59
2022/03/18 15:21:36;;;;;;;11.10;6.70;;;;;;;15.87;27.17;101218.23;233816;1218;140072;-59
2022/03/18 15:26:39;;;;;;;14.50;7.00;;;;;;;15.88;27.37;101215.27;233565;1217;139441;-59
2022/03/18 15:31:42;;;;;;;13.30;7.80;;;;;;;15.88;27.63;101220.13;233743;1218;138938;-58
2022/03/18 15:36:46;;;;;;;14.90;7.70;;;;;;;16.01;27.96;101216.65;233574;1218;140230;-57
2022/03/18 15:41:49;;;;;;;13.10;7.60;;;;;;;16.00;27.70;101220.27;233738;1218;139802;-56
2022/03/18 15:46:52;;;;;;;11.90;7.20;;;;;;;15.91;27.73;101224.14;233649;1219;139451;-58
2022/03/18 15:51:57;;;;;;;13.40;7.30;;;;;;;15.91;27.68;101226.42;233818;1218;139729;-58
2022/03/18 15:56:59;;;;;;;16.60;7.30;;;;;;;15.71;27.26;101230.96;233716;1218;139632;-58
2022/03/18 16:02:03;;;;;;;13.10;7.80;;;;;;;15.60;27.21;101234.86;232751;1219;140720;-56
2022/03/18 16:07:07;;;;;;;53.00;33.40;;;;;;;15.51;27.05;101242.30;233718;1218;139682;-60
2022/03/18 16:12:10;;;;;;;15.80;9.30;;;;;;;15.34;26.66;101244.17;233574;1217;139584;-59
2022/03/18 16:17:15;;;;;;;16.70;8.60;;;;;;;14.54;25.87;101256.98;233678;1218;140426;-59
2022/03/18 16:22:30;;;;;;;16.90;8.70;;;;;;;13.68;25.68;101254.98;233697;1218;141697;-58
2022/03/18 16:27:34;;;;;;;15.50;9.10;;;;;;;12.85;26.42;101269.64;233772;1218;139573;-58
2022/03/18 16:32:39;;;;;;;18.50;9.40;;;;;;;12.28;26.64;101274.10;233613;1218;139369;-59
2022/03/18 16:37:43;;;;;;;;;;;;;;;11.80;26.98;101276.15;233671;1218;139936;-60
2022/03/18 16:42:50;;;;;;;22.70;10.00;;;;;;;11.39;27.36;101279.54;233598;1219;125676;-60
2022/03/18 16:53:14;;;;;;;24.80;12.20;;;;;;;10.70;28.16;101297.77;232520;1218;139838;-57
2022/03/18 16:58:17;;;;;;;21.60;11.80;;;;;;;10.44;28.34;101306.27;233694;1218;138955;-58
2022/03/18 17:03:20;;;;;;;21.10;11.60;;;;;;;10.16;28.64;101316.66;232950;1218;139377;-59
2022/03/18 17:08:24;;;;;;;19.60;11.20;;;;;;;9.89;28.98;101324.91;233665;1219;142548;-59
2022/03/18 17:13:27;;;;;;;24.00;12.00;;;;;;;9.65;29.25;101335.73;233712;1219;139470;-58
2022/03/18 17:18:35;;;;;;;25.20;12.50;;;;;;;9.44;29.67;101345.36;233691;1217;139318;-59
2022/03/18 17:23:40;;;;;;;23.10;13.20;;;;;;;9.23;29.80;101349.30;233754;1219;139354;-59
2022/03/18 17:28:43;;;;;;;23.40;14.10;;;;;;;9.06;30.10;101355.13;233678;1219;139567;-59
2022/03/18 17:33:48;;;;;;;26.30;14.70;;;;;;;8.89;30.27;101358.27;233844;1218;139435;-59
2022/03/18 17:38:53;;;;;;;27.40;14.60;;;;;;;8.73;30.41;101367.56;233701;1217;140346;-59
2022/03/18 17:43:58;;;;;;;28.50;15.10;;;;;;;8.60;30.58;101374.16;233727;1219;139512;-58
2022/03/18 17:49:01;;;;;;;29.60;14.70;;;;;;;8.49;30.61;101377.89;233481;1218;140373;-63
2022/03/18 17:54:04;;;;;;;27.20;15.20;;;;;;;8.37;30.91;101384.41;233586;1219;139073;-61
2022/03/18 17:59:11;;;;;;;28.80;15.60;;;;;;;8.24;30.82;101384.41;233507;1219;139144;-61
2022/03/18 18:04:14;;;;;;;28.80;16.10;;;;;;;8.10;31.03;101393.46;233579;1219;138986;-61
2022/03/18 18:09:18;;;;;;;239.00;133.70;;;;;;;7.95;31.23;101396.66;233767;1217;140545;-59
2022/03/18 18:14:21;;;;;;;32.60;18.80;;;;;;;7.91;31.36;101401.50;233305;1217;139379;-60
2022/03/18 18:24:47;;;;;;;36.40;15.60;;;;;;;7.69;31.55;101408.30;233276;1219;139873;-59
2022/03/18 18:29:51;;;;;;;30.60;16.40;;;;;;;7.56;31.66;101405.98;233192;1217;140498;-59
2022/03/18 18:34:55;;;;;;;29.20;15.40;;;;;;;7.44;31.52;101406.84;232834;1217;139167;-60
2022/03/18 18:39:58;;;;;;;34.10;16.10;;;;;;;7.31;31.75;101404.67;233228;1217;139423;-60
2022/03/18 18:45:04;;;;;;;31.40;16.40;;;;;;;7.21;31.48;101402.66;233220;1217;139129;-60
2022/03/18 18:50:12;;;;;;;32.80;16.00;;;;;;;7.11;31.77;101412.82;233040;1217;138869;-61
2022/03/18 18:55:20;;;;;;;41.20;18.30;;;;;;;7.03;31.59;101416.25;233095;1217;139470;-60
2022/03/18 19:00:23;;;;;;;35.10;18.60;;;;;;;6.96;31.60;101417.02;233136;1217;141433;-59
2022/03/18 19:05:26;;;;;;;37.20;17.70;;;;;;;6.88;31.62;101418.31;233230;1217;139861;-60
2022/03/18 19:10:29;;;;;;;33.90;17.70;;;;;;;6.81;31.93;101418.73;233133;1217;139450;-61
2022/03/18 19:15:33;;;;;;;33.60;17.70;;;;;;;6.76;31.72;101426.70;233365;1217;139608;-61
2022/03/18 19:20:36;;;;;;;38.60;17.70;;;;;;;6.68;32.03;101427.48;233037;1217;139236;-61
2022/03/18 19:25:40;;;;;;;35.80;17.60;;;;;;;6.60;31.87;101431.78;233124;1217;139193;-60
2022/03/18 19:30:49;;;;;;;34.60;17.50;;;;;;;6.52;31.98;101435.18;233057;1217;139162;-59
2022/03/18 19:35:56;;;;;;;40.80;18.90;;;;;;;6.44;31.90;101438.57;233080;1217;139042;-60
2022/03/18 19:40:59;;;;;;;38.20;17.70;;;;;;;6.37;32.13;101440.58;233207;1217;139086;-60
2022/03/18 19:46:04;;;;;;;219.00;122.00;;;;;;;6.29;31.99;101437.96;233225;1217;139734;-61
2022/03/18 19:51:08;;;;;;;52.90;27.80;;;;;;;6.42;32.87;101435.60;233021;1217;139961;-60
2022/03/18 20:01:32;;;;;;;39.30;19.60;;;;;;;6.36;32.35;101443.58;233026;1218;139474;-61
2022/03/18 20:06:36;;;;;;;36.90;19.20;;;;;;;6.24;31.97;101446.11;233022;1218;139368;-60
2022/03/18 20:11:39;;;;;;;36.00;18.30;;;;;;;6.14;32.05;101447.39;233036;1217;138970;-60
2022/03/18 20:16:49;;;;;;;37.70;20.00;;;;;;;6.04;31.97;101443.56;233015;1218;140220;-60
2022/03/18 20:21:52;;;;;;;46.20;21.70;;;;;;;5.93;32.13;101435.67;233038;1217;141752;-60
2022/03/18 20:26:55;;;;;;;43.10;21.00;;;;;;;5.85;32.17;101431.63;233127;1217;139196;-60
2022/03/18 20:31:59;;;;;;;39.40;20.20;;;;;;;5.75;32.25;101430.27;233278;1217;139519;-60
2022/03/18 20:37:03;;;;;;;35.80;19.60;;;;;;;5.66;32.24;101434.17;233058;1217;139256;-61
2022/03/18 20:42:06;;;;;;;41.00;20.40;;;;;;;5.57;32.81;101435.08;233157;1217;139318;-60
2022/03/18 20:47:09;;;;;;;42.10;21.80;;;;;;;5.49;32.63;101436.52;233023;1217;139677;-61
2022/03/18 20:52:13;;;;;;;39.70;21.10;;;;;;;5.42;32.71;101437.23;232941;1219;141863;-61
2022/03/18 20:57:16;;;;;;;40.20;21.20;;;;;;;5.36;32.96;101441.48;233139;1217;139056;-60
2022/03/18 21:02:19;;;;;;;39.00;20.30;;;;;;;5.31;33.10;101445.88;233049;1217;139637;-60
2022/03/18 21:07:22;;;;;;;35.90;18.80;;;;;;;5.25;32.79;101449.40;233348;1217;139366;-60
2022/03/18 21:12:25;;;;;;;35.30;18.20;;;;;;;5.20;32.92;101445.71;232869;1219;139194;-62
2022/03/18 21:17:29;;;;;;;434.30;316.80;;;;;;;5.20;33.18;101448.71;233031;1217;139526;-60
2022/03/18 21:22:40;;;;;;;62.80;35.20;;;;;;;5.38;33.60;101442.87;232982;1217;141733;-60
2022/03/18 21:33:13;;;;;;;42.60;23.10;;;;;;;5.29;33.29;101444.65;233003;1217;139292;-61
2022/03/18 21:38:18;;;;;;;45.50;23.30;;;;;;;5.16;32.88;101448.71;232976;1217;140224;-60
2022/03/18 21:43:21;;;;;;;45.20;22.30;;;;;;;5.04;33.22;101447.84;233088;1217;138893;-59
2022/03/18 21:48:26;;;;;;;161.10;95.80;;;;;;;4.90;33.49;101446.61;233210;1217;139723;-58
2022/03/18 21:53:29;;;;;;;60.20;28.70;;;;;;;4.97;34.05;101451.89;233085;1217;140352;-60
2022/03/18 21:58:32;;;;;;;44.20;23.20;;;;;;;5.06;33.94;101454.35;233162;1217;138695;-60
2022/03/18 22:03:34;;;;;;;44.90;23.30;;;;;;;4.93;33.67;101454.52;233281;1217;139202;-60
2022/03/18 22:08:39;;;;;;;47.20;23.50;;;;;;;4.76;33.50;101453.29;233139;1217;139563;-60
2022/03/18 22:13:42;;;;;;;44.80;22.50;;;;;;;4.59;33.51;101443.43;233057;1217;139280;-60
2022/03/18 22:18:45;;;;;;;42.60;21.90;;;;;;;4.44;33.79;101447.63;233071;1219;139852;-59
2022/03/18 22:23:48;;;;;;;42.70;22.90;;;;;;;4.29;34.02;101448.81;233126;1217;139669;-60
2022/03/18 22:28:51;;;;;;;44.40;22.50;;;;;;;4.14;34.11;101453.34;233171;1217;139483;-60
2022/03/18 22:33:54;;;;;;;49.10;23.70;;;;;;;4.03;34.32;101453.84;233165;1218;139855;-58
2022/03/18 22:38:57;;;;;;;45.30;23.30;;;;;;;3.95;34.66;101451.35;233141;1217;138991;-59
2022/03/18 22:44:01;;;;;;;45.20;23.30;;;;;;;3.87;34.76;101453.24;233400;1217;139142;-59
2022/03/18 22:49:04;;;;;;;50.90;24.30;;;;;;;3.80;35.14;101456.73;233224;1217;139459;-60
2022/03/18 22:54:07;;;;;;;47.10;23.50;;;;;;;3.70;35.19;101457.55;233174;1217;139088;-60
2022/03/18 22:59:12;;;;;;;47.90;22.50;;;;;;;3.60;35.15;101459.95;233198;1217;139992;-60
2022/03/18 23:04:15;;;;;;;39.20;20.90;;;;;;;3.53;35.30;101463.44;233170;1217;139854;-60
2022/03/18 23:09:18;;;;;;;42.50;21.60;;;;;;;3.48;35.37;101456.90;233394;1217;140119;-61
2022/03/18 23:14:22;;;;;;;39.30;20.80;;;;;;;3.44;35.32;101454.95;233160;1217;139116;-60
2022/03/18 23:19:25;;;;;;;39.40;19.70;;;;;;;3.43;35.48;101457.41;233145;1217;139150;-60
2022/03/18 23:24:29;;;;;;;39.40;21.30;;;;;;;3.44;35.53;101453.72;233160;1217;139148;-60
2022/03/18 23:29:32;;;;;;;47.10;21.20;;;;;;;3.40;35.39;101457.57;233125;1217;138969;-60
2022/03/18 23:34:35;;;;;;;43.50;21.20;;;;;;;3.36;35.52;101457.54;233336;1217;140284;-60
2022/03/18 23:39:38;;;;;;;39.80;20.40;;;;;;;3.31;35.51;101458.90;233389;1217;140205;-60
2022/03/18 23:44:41;;;;;;;41.40;20.60;;;;;;;3.26;35.62;101460.10;233133;1219;139639;-61